sensor_id;sensor_type;location;lat;lon;timestamp;temperature;humidity
23991;DHT22;12205;50.600;4.608;2023-07-29T00:01:26;20.80;99.90
23991;DHT22;12205;50.600;4.608;2023-07-29T00:03:54;20.80;99.90
23991;DHT22;12205;50.600;4.608;2023-07-29T00:06:22;20.80;99.90
23991;DHT22;12205;50.600;4.608;2023-07-29T00:08:49;20.80;99.90
23991;DHT22;12205;50.600;4.608;2023-07-29T00:11:16;20.80;99.90
23991;DHT22;12205;50.600;4.608;2023-07-29T00:13:44;20.80;99.90
23991;DHT22;12205;50.600;4.608;2023-07-29T00:16:13;20.80;99.90
23991;DHT22;12205;50.600;4.608;2023-07-29T00:18:44;20.70;99.90
23991;DHT22;12205;50.600;4.608;2023-07-29T00:21:11;20.70;99.90
23991;DHT22;12205;50.600;4.608;2023-07-29T00:23:38;20.70;99.90
23991;DHT22;12205;50.600;4.608;2023-07-29T00:26:06;20.70;99.90
23991;DHT22;12205;50.600;4.608;2023-07-29T00:28:33;20.60;99.90
23991;DHT22;12205;50.600;4.608;2023-07-29T00:31:01;20.60;99.90
23991;DHT22;12205;50.600;4.608;2023-07-29T00:33:30;20.50;99.90
23991;DHT22;12205;50.600;4.608;2023-07-29T00:36:00;20.40;99.90
23991;DHT22;12205;50.600;4.608;2023-07-29T00:38:28;20.30;99.90
23991;DHT22;12205;50.600;4.608;2023-07-29T00:40:57;20.20;99.90
23991;DHT22;12205;50.600;4.608;2023-07-29T00:43:25;20.20;99.90
23991;DHT22;12205;50.600;4.608;2023-07-29T00:45:52;20.10;99.90
23991;DHT22;12205;50.600;4.608;2023-07-29T00:48:20;20.00;99.90
23991;DHT22;12205;50.600;4.608;2023-07-29T00:50:47;20.00;99.90
23991;DHT22;12205;50.600;4.608;2023-07-29T00:53:16;19.90;99.90
23991;DHT22;12205;50.600;4.608;2023-07-29T00:55:44;20.00;99.90
23991;DHT22;12205;50.600;4.608;2023-07-29T00:58:12;19.90;99.90
23991;DHT22;12205;50.600;4.608;2023-07-29T01:00:40;19.70;99.90
23991;DHT22;12205;50.600;4.608;2023-07-29T01:03:08;19.70;99.90
23991;DHT22;12205;50.600;4.608;2023-07-29T01:05:42;19.60;99.90
23991;DHT22;12205;50.600;4.608;2023-07-29T01:08:21;19.50;99.90
23991;DHT22;12205;50.600;4.608;2023-07-29T01:11:01;19.50;99.90
23991;DHT22;12205;50.600;4.608;2023-07-29T01:13:40;19.40;99.90
23991;DHT22;12205;50.600;4.608;2023-07-29T01:16:15;19.40;99.90
23991;DHT22;12205;50.600;4.608;2023-07-29T01:18:48;19.30;99.90
23991;DHT22;12205;50.600;4.608;2023-07-29T01:21:18;19.30;99.90
23991;DHT22;12205;50.600;4.608;2023-07-29T01:23:52;19.30;99.90
23991;DHT22;12205;50.600;4.608;2023-07-29T01:26:20;19.20;99.90
23991;DHT22;12205;50.600;4.608;2023-07-29T01:28:47;19.20;99.90
23991;DHT22;12205;50.600;4.608;2023-07-29T01:31:19;19.10;99.90
23991;DHT22;12205;50.600;4.608;2023-07-29T01:33:57;19.00;99.90
23991;DHT22;12205;50.600;4.608;2023-07-29T01:36:29;19.00;99.90
23991;DHT22;12205;50.600;4.608;2023-07-29T01:39:02;19.00;99.90
23991;DHT22;12205;50.600;4.608;2023-07-29T01:41:30;19.10;99.90
23991;DHT22;12205;50.600;4.608;2023-07-29T01:43:58;19.00;99.90
23991;DHT22;12205;50.600;4.608;2023-07-29T01:46:26;19.00;99.90
23991;DHT22;12205;50.600;4.608;2023-07-29T01:48:53;19.00;99.90
23991;DHT22;12205;50.600;4.608;2023-07-29T01:51:20;19.00;99.90
23991;DHT22;12205;50.600;4.608;2023-07-29T01:53:48;19.00;99.90
23991;DHT22;12205;50.600;4.608;2023-07-29T01:56:17;19.00;99.90
23991;DHT22;12205;50.600;4.608;2023-07-29T01:58:52;19.00;99.90
23991;DHT22;12205;50.600;4.608;2023-07-29T02:01:19;19.00;99.90
23991;DHT22;12205;50.600;4.608;2023-07-29T02:03:46;19.00;99.90
23991;DHT22;12205;50.600;4.608;2023-07-29T02:06:18;19.00;99.90
23991;DHT22;12205;50.600;4.608;2023-07-29T02:08:46;19.00;99.90
23991;DHT22;12205;50.600;4.608;2023-07-29T02:11:13;19.00;99.90
23991;DHT22;12205;50.600;4.608;2023-07-29T02:13:41;19.00;99.90
23991;DHT22;12205;50.600;4.608;2023-07-29T02:16:09;18.90;99.90
23991;DHT22;12205;50.600;4.608;2023-07-29T02:18:36;18.80;99.90
23991;DHT22;12205;50.600;4.608;2023-07-29T02:21:04;18.80;99.90
23991;DHT22;12205;50.600;4.608;2023-07-29T02:23:31;18.80;99.90
23991;DHT22;12205;50.600;4.608;2023-07-29T02:25:58;18.80;99.90
23991;DHT22;12205;50.600;4.608;2023-07-29T02:28:26;18.80;99.90
23991;DHT22;12205;50.600;4.608;2023-07-29T02:31:14;18.70;99.90
23991;DHT22;12205;50.600;4.608;2023-07-29T02:33:43;18.70;99.90
23991;DHT22;12205;50.600;4.608;2023-07-29T02:36:11;18.70;99.90
23991;DHT22;12205;50.600;4.608;2023-07-29T02:38:39;18.60;99.90
23991;DHT22;12205;50.600;4.608;2023-07-29T02:41:07;18.50;99.90
23991;DHT22;12205;50.600;4.608;2023-07-29T02:43:35;18.50;99.90
23991;DHT22;12205;50.600;4.608;2023-07-29T02:46:03;18.40;99.90
23991;DHT22;12205;50.600;4.608;2023-07-29T02:48:32;18.40;99.90
23991;DHT22;12205;50.600;4.608;2023-07-29T02:50:59;18.30;99.90
23991;DHT22;12205;50.600;4.608;2023-07-29T02:53:26;18.30;99.90
23991;DHT22;12205;50.600;4.608;2023-07-29T02:55:53;18.30;99.90
23991;DHT22;12205;50.600;4.608;2023-07-29T02:58:21;18.30;99.90
23991;DHT22;12205;50.600;4.608;2023-07-29T03:00:48;18.30;99.90
23991;DHT22;12205;50.600;4.608;2023-07-29T03:03:17;18.30;99.90
23991;DHT22;12205;50.600;4.608;2023-07-29T03:05:46;18.30;99.90
23991;DHT22;12205;50.600;4.608;2023-07-29T03:08:14;18.30;99.90
23991;DHT22;12205;50.600;4.608;2023-07-29T03:10:41;18.30;99.90
23991;DHT22;12205;50.600;4.608;2023-07-29T03:13:08;18.30;99.90
23991;DHT22;12205;50.600;4.608;2023-07-29T03:15:36;18.30;99.90
23991;DHT22;12205;50.600;4.608;2023-07-29T03:18:03;18.30;99.90
23991;DHT22;12205;50.600;4.608;2023-07-29T03:20:30;18.30;99.90
23991;DHT22;12205;50.600;4.608;2023-07-29T03:22:59;18.20;99.90
23991;DHT22;12205;50.600;4.608;2023-07-29T03:25:26;18.30;99.90
23991;DHT22;12205;50.600;4.608;2023-07-29T03:27:56;18.30;99.90
23991;DHT22;12205;50.600;4.608;2023-07-29T03:30:23;18.30;99.90
23991;DHT22;12205;50.600;4.608;2023-07-29T03:32:54;18.30;99.90
23991;DHT22;12205;50.600;4.608;2023-07-29T03:35:21;18.40;99.90
23991;DHT22;12205;50.600;4.608;2023-07-29T03:37:49;18.40;99.90
23991;DHT22;12205;50.600;4.608;2023-07-29T03:40:17;18.40;99.90
23991;DHT22;12205;50.600;4.608;2023-07-29T03:42:45;18.40;99.90
23991;DHT22;12205;50.600;4.608;2023-07-29T03:45:12;18.40;99.90
23991;DHT22;12205;50.600;4.608;2023-07-29T03:47:39;18.40;99.90
23991;DHT22;12205;50.600;4.608;2023-07-29T03:50:09;18.40;99.90
23991;DHT22;12205;50.600;4.608;2023-07-29T03:52:36;18.40;99.90
23991;DHT22;12205;50.600;4.608;2023-07-29T03:55:04;18.40;99.90
23991;DHT22;12205;50.600;4.608;2023-07-29T03:57:33;18.40;99.90
23991;DHT22;12205;50.600;4.608;2023-07-29T04:00:00;18.40;99.90
23991;DHT22;12205;50.600;4.608;2023-07-29T04:02:30;18.40;99.90
23991;DHT22;12205;50.600;4.608;2023-07-29T04:04:58;18.30;99.90
23991;DHT22;12205;50.600;4.608;2023-07-29T04:07:25;18.30;99.90
23991;DHT22;12205;50.600;4.608;2023-07-29T04:09:53;18.30;99.90
23991;DHT22;12205;50.600;4.608;2023-07-29T04:12:21;18.30;99.90
23991;DHT22;12205;50.600;4.608;2023-07-29T04:14:50;18.30;99.90
23991;DHT22;12205;50.600;4.608;2023-07-29T04:17:17;18.30;99.90
23991;DHT22;12205;50.600;4.608;2023-07-29T04:19:44;18.30;99.90
23991;DHT22;12205;50.600;4.608;2023-07-29T04:22:12;18.30;99.90
23991;DHT22;12205;50.600;4.608;2023-07-29T04:24:39;18.30;99.90
23991;DHT22;12205;50.600;4.608;2023-07-29T04:27:06;18.40;99.90
23991;DHT22;12205;50.600;4.608;2023-07-29T04:29:33;18.30;99.90
23991;DHT22;12205;50.600;4.608;2023-07-29T04:32:03;18.30;99.90
23991;DHT22;12205;50.600;4.608;2023-07-29T04:34:33;18.30;99.90
23991;DHT22;12205;50.600;4.608;2023-07-29T04:37:00;18.30;99.90
23991;DHT22;12205;50.600;4.608;2023-07-29T04:39:27;18.20;99.90
23991;DHT22;12205;50.600;4.608;2023-07-29T04:41:55;18.30;99.90
23991;DHT22;12205;50.600;4.608;2023-07-29T04:44:22;18.20;99.90
23991;DHT22;12205;50.600;4.608;2023-07-29T04:46:50;18.20;99.90
23991;DHT22;12205;50.600;4.608;2023-07-29T04:49:18;18.20;99.90
23991;DHT22;12205;50.600;4.608;2023-07-29T04:51:46;18.20;99.90
23991;DHT22;12205;50.600;4.608;2023-07-29T04:54:13;18.20;99.90
23991;DHT22;12205;50.600;4.608;2023-07-29T04:56:40;18.20;99.90
23991;DHT22;12205;50.600;4.608;2023-07-29T04:59:08;18.20;99.90
23991;DHT22;12205;50.600;4.608;2023-07-29T05:01:35;18.20;99.90
23991;DHT22;12205;50.600;4.608;2023-07-29T05:04:03;18.20;99.90
23991;DHT22;12205;50.600;4.608;2023-07-29T05:06:32;18.20;99.90
23991;DHT22;12205;50.600;4.608;2023-07-29T05:09:12;18.20;99.90
23991;DHT22;12205;50.600;4.608;2023-07-29T05:11:40;18.20;99.90
23991;DHT22;12205;50.600;4.608;2023-07-29T05:14:07;18.20;99.90
23991;DHT22;12205;50.600;4.608;2023-07-29T05:16:35;18.20;99.90
23991;DHT22;12205;50.600;4.608;2023-07-29T05:19:04;18.20;99.90
23991;DHT22;12205;50.600;4.608;2023-07-29T05:21:33;18.20;99.90
23991;DHT22;12205;50.600;4.608;2023-07-29T05:24:00;18.20;99.90
23991;DHT22;12205;50.600;4.608;2023-07-29T05:26:30;18.20;99.90
23991;DHT22;12205;50.600;4.608;2023-07-29T05:28:58;18.20;99.90
23991;DHT22;12205;50.600;4.608;2023-07-29T05:31:25;18.30;99.90
23991;DHT22;12205;50.600;4.608;2023-07-29T05:33:53;18.30;99.90
23991;DHT22;12205;50.600;4.608;2023-07-29T05:36:21;18.40;99.90
23991;DHT22;12205;50.600;4.608;2023-07-29T05:38:50;18.40;99.90
23991;DHT22;12205;50.600;4.608;2023-07-29T05:41:18;18.50;99.90
23991;DHT22;12205;50.600;4.608;2023-07-29T05:43:45;18.60;99.90
23991;DHT22;12205;50.600;4.608;2023-07-29T05:46:13;18.60;99.90
23991;DHT22;12205;50.600;4.608;2023-07-29T05:48:40;18.60;99.90
23991;DHT22;12205;50.600;4.608;2023-07-29T05:51:07;18.70;99.90
23991;DHT22;12205;50.600;4.608;2023-07-29T05:53:35;18.80;99.90
23991;DHT22;12205;50.600;4.608;2023-07-29T05:56:04;18.80;99.90
23991;DHT22;12205;50.600;4.608;2023-07-29T05:58:31;18.90;99.90
23991;DHT22;12205;50.600;4.608;2023-07-29T06:00:58;18.90;99.90
23991;DHT22;12205;50.600;4.608;2023-07-29T06:03:25;18.90;99.90
23991;DHT22;12205;50.600;4.608;2023-07-29T06:05:53;19.00;99.90
23991;DHT22;12205;50.600;4.608;2023-07-29T06:08:21;19.00;99.90
23991;DHT22;12205;50.600;4.608;2023-07-29T06:10:48;19.10;99.90
23991;DHT22;12205;50.600;4.608;2023-07-29T06:13:18;19.20;99.90
23991;DHT22;12205;50.600;4.608;2023-07-29T06:15:48;19.20;99.90
23991;DHT22;12205;50.600;4.608;2023-07-29T06:18:16;19.20;99.90
23991;DHT22;12205;50.600;4.608;2023-07-29T06:20:45;19.20;99.90
23991;DHT22;12205;50.600;4.608;2023-07-29T06:23:12;19.30;99.90
23991;DHT22;12205;50.600;4.608;2023-07-29T06:25:39;19.40;99.90
23991;DHT22;12205;50.600;4.608;2023-07-29T06:28:07;19.40;99.90
23991;DHT22;12205;50.600;4.608;2023-07-29T06:30:36;19.40;99.90
23991;DHT22;12205;50.600;4.608;2023-07-29T06:33:04;19.40;99.90
23991;DHT22;12205;50.600;4.608;2023-07-29T06:35:33;19.50;99.90
23991;DHT22;12205;50.600;4.608;2023-07-29T06:38:00;19.40;99.90
23991;DHT22;12205;50.600;4.608;2023-07-29T06:40:27;19.40;99.90
23991;DHT22;12205;50.600;4.608;2023-07-29T06:42:54;19.50;99.90
23991;DHT22;12205;50.600;4.608;2023-07-29T06:45:21;19.50;99.90
23991;DHT22;12205;50.600;4.608;2023-07-29T06:47:49;19.60;99.90
23991;DHT22;12205;50.600;4.608;2023-07-29T06:50:17;19.60;99.90
23991;DHT22;12205;50.600;4.608;2023-07-29T06:52:45;19.60;99.90
23991;DHT22;12205;50.600;4.608;2023-07-29T06:55:12;19.70;99.90
23991;DHT22;12205;50.600;4.608;2023-07-29T06:57:39;19.70;99.90
23991;DHT22;12205;50.600;4.608;2023-07-29T07:00:07;19.70;99.90
23991;DHT22;12205;50.600;4.608;2023-07-29T07:02:35;19.70;99.90
23991;DHT22;12205;50.600;4.608;2023-07-29T07:05:04;19.70;99.90
23991;DHT22;12205;50.600;4.608;2023-07-29T07:07:32;19.70;99.90
23991;DHT22;12205;50.600;4.608;2023-07-29T07:10:01;19.80;99.90
23991;DHT22;12205;50.600;4.608;2023-07-29T07:12:28;19.80;99.90
23991;DHT22;12205;50.600;4.608;2023-07-29T07:14:55;19.80;99.90
23991;DHT22;12205;50.600;4.608;2023-07-29T07:17:23;19.90;99.90
23991;DHT22;12205;50.600;4.608;2023-07-29T07:19:50;19.90;99.90
23991;DHT22;12205;50.600;4.608;2023-07-29T07:22:19;19.90;99.90
23991;DHT22;12205;50.600;4.608;2023-07-29T07:24:46;19.90;99.90
23991;DHT22;12205;50.600;4.608;2023-07-29T07:27:14;20.00;99.90
23991;DHT22;12205;50.600;4.608;2023-07-29T07:29:41;20.00;99.90
23991;DHT22;12205;50.600;4.608;2023-07-29T07:32:08;20.10;99.90
23991;DHT22;12205;50.600;4.608;2023-07-29T07:34:35;20.20;99.90
23991;DHT22;12205;50.600;4.608;2023-07-29T07:37:03;20.30;99.90
23991;DHT22;12205;50.600;4.608;2023-07-29T07:39:32;20.50;99.90
23991;DHT22;12205;50.600;4.608;2023-07-29T07:42:00;20.70;99.90
23991;DHT22;12205;50.600;4.608;2023-07-29T07:44:27;21.00;99.90
23991;DHT22;12205;50.600;4.608;2023-07-29T07:46:54;21.10;99.90
23991;DHT22;12205;50.600;4.608;2023-07-29T07:49:22;21.20;99.90
23991;DHT22;12205;50.600;4.608;2023-07-29T07:51:49;21.30;99.90
23991;DHT22;12205;50.600;4.608;2023-07-29T07:54:17;21.30;99.90
23991;DHT22;12205;50.600;4.608;2023-07-29T07:56:45;21.30;99.90
23991;DHT22;12205;50.600;4.608;2023-07-29T07:59:13;21.30;99.90
23991;DHT22;12205;50.600;4.608;2023-07-29T08:01:40;21.40;99.90
23991;DHT22;12205;50.600;4.608;2023-07-29T08:04:08;21.40;99.90
23991;DHT22;12205;50.600;4.608;2023-07-29T08:06:38;21.40;99.90
23991;DHT22;12205;50.600;4.608;2023-07-29T08:09:05;21.50;99.90
23991;DHT22;12205;50.600;4.608;2023-07-29T08:11:32;21.50;99.90
23991;DHT22;12205;50.600;4.608;2023-07-29T08:14:01;21.60;99.90
23991;DHT22;12205;50.600;4.608;2023-07-29T08:16:29;21.70;99.90
23991;DHT22;12205;50.600;4.608;2023-07-29T08:18:56;21.70;99.90
23991;DHT22;12205;50.600;4.608;2023-07-29T08:21:23;21.70;99.90
23991;DHT22;12205;50.600;4.608;2023-07-29T08:23:50;21.70;99.90
23991;DHT22;12205;50.600;4.608;2023-07-29T08:26:18;21.70;99.90
23991;DHT22;12205;50.600;4.608;2023-07-29T08:28:45;21.80;99.90
23991;DHT22;12205;50.600;4.608;2023-07-29T08:31:15;21.90;99.90
23991;DHT22;12205;50.600;4.608;2023-07-29T08:33:42;21.90;99.90
23991;DHT22;12205;50.600;4.608;2023-07-29T08:36:09;21.90;99.90
23991;DHT22;12205;50.600;4.608;2023-07-29T08:38:37;21.90;99.90
23991;DHT22;12205;50.600;4.608;2023-07-29T08:41:14;21.90;99.90
23991;DHT22;12205;50.600;4.608;2023-07-29T08:43:48;22.00;99.90
23991;DHT22;12205;50.600;4.608;2023-07-29T08:46:20;22.10;99.90
23991;DHT22;12205;50.600;4.608;2023-07-29T08:48:48;22.30;99.90
23991;DHT22;12205;50.600;4.608;2023-07-29T08:51:17;22.50;99.90
23991;DHT22;12205;50.600;4.608;2023-07-29T08:53:46;22.70;99.90
23991;DHT22;12205;50.600;4.608;2023-07-29T08:56:15;22.80;99.90
23991;DHT22;12205;50.600;4.608;2023-07-29T08:58:43;22.80;99.90
23991;DHT22;12205;50.600;4.608;2023-07-29T09:01:11;22.80;99.90
23991;DHT22;12205;50.600;4.608;2023-07-29T09:03:41;22.80;99.90
23991;DHT22;12205;50.600;4.608;2023-07-29T09:06:08;22.80;99.90
23991;DHT22;12205;50.600;4.608;2023-07-29T09:08:35;22.80;99.90
23991;DHT22;12205;50.600;4.608;2023-07-29T09:11:03;22.80;99.90
23991;DHT22;12205;50.600;4.608;2023-07-29T09:13:31;23.00;99.90
23991;DHT22;12205;50.600;4.608;2023-07-29T09:15:58;23.10;99.90
23991;DHT22;12205;50.600;4.608;2023-07-29T09:18:26;23.20;99.90
23991;DHT22;12205;50.600;4.608;2023-07-29T09:20:59;23.30;99.90
23991;DHT22;12205;50.600;4.608;2023-07-29T09:23:27;23.30;99.90
23991;DHT22;12205;50.600;4.608;2023-07-29T09:26:01;23.10;99.90
23991;DHT22;12205;50.600;4.608;2023-07-29T09:28:33;23.00;99.90
23991;DHT22;12205;50.600;4.608;2023-07-29T09:31:00;23.10;99.90
23991;DHT22;12205;50.600;4.608;2023-07-29T09:33:28;23.30;99.90
23991;DHT22;12205;50.600;4.608;2023-07-29T09:35:58;23.40;99.90
23991;DHT22;12205;50.600;4.608;2023-07-29T09:38:29;23.50;99.90
23991;DHT22;12205;50.600;4.608;2023-07-29T09:40:57;23.60;99.90
23991;DHT22;12205;50.600;4.608;2023-07-29T09:43:29;23.70;99.90
23991;DHT22;12205;50.600;4.608;2023-07-29T09:46:00;23.70;99.90
23991;DHT22;12205;50.600;4.608;2023-07-29T09:48:28;23.80;99.90
23991;DHT22;12205;50.600;4.608;2023-07-29T09:51:09;23.80;99.90
23991;DHT22;12205;50.600;4.608;2023-07-29T09:53:40;23.50;99.90
23991;DHT22;12205;50.600;4.608;2023-07-29T09:56:09;23.60;99.90
23991;DHT22;12205;50.600;4.608;2023-07-29T09:58:38;23.60;99.90
23991;DHT22;12205;50.600;4.608;2023-07-29T10:01:06;23.60;99.90
23991;DHT22;12205;50.600;4.608;2023-07-29T10:03:34;23.80;99.90
23991;DHT22;12205;50.600;4.608;2023-07-29T10:06:05;23.80;99.90
23991;DHT22;12205;50.600;4.608;2023-07-29T10:08:33;24.00;99.90
23991;DHT22;12205;50.600;4.608;2023-07-29T10:11:05;24.00;99.90
23991;DHT22;12205;50.600;4.608;2023-07-29T10:13:34;24.10;99.90
23991;DHT22;12205;50.600;4.608;2023-07-29T10:16:04;24.00;99.90
23991;DHT22;12205;50.600;4.608;2023-07-29T10:18:32;24.20;99.90
23991;DHT22;12205;50.600;4.608;2023-07-29T10:21:01;24.30;99.90
23991;DHT22;12205;50.600;4.608;2023-07-29T10:23:34;24.30;99.90
23991;DHT22;12205;50.600;4.608;2023-07-29T10:26:06;24.10;99.90
23991;DHT22;12205;50.600;4.608;2023-07-29T10:28:40;24.10;99.90
23991;DHT22;12205;50.600;4.608;2023-07-29T10:31:08;24.00;99.90
23991;DHT22;12205;50.600;4.608;2023-07-29T10:33:37;24.00;99.90
23991;DHT22;12205;50.600;4.608;2023-07-29T10:36:05;24.10;99.90
23991;DHT22;12205;50.600;4.608;2023-07-29T10:38:34;24.10;99.90
23991;DHT22;12205;50.600;4.608;2023-07-29T10:41:01;24.20;99.90
23991;DHT22;12205;50.600;4.608;2023-07-29T10:43:32;24.20;99.90
23991;DHT22;12205;50.600;4.608;2023-07-29T10:46:15;24.40;99.90
23991;DHT22;12205;50.600;4.608;2023-07-29T10:48:51;24.40;99.90
23991;DHT22;12205;50.600;4.608;2023-07-29T10:51:28;24.50;99.90
23991;DHT22;12205;50.600;4.608;2023-07-29T10:54:00;24.60;99.90
23991;DHT22;12205;50.600;4.608;2023-07-29T10:56:30;24.40;99.90
23991;DHT22;12205;50.600;4.608;2023-07-29T10:59:23;24.40;99.90
23991;DHT22;12205;50.600;4.608;2023-07-29T11:01:58;24.40;99.90
23991;DHT22;12205;50.600;4.608;2023-07-29T11:04:28;24.70;99.90
23991;DHT22;12205;50.600;4.608;2023-07-29T11:07:26;24.60;99.90
23991;DHT22;12205;50.600;4.608;2023-07-29T11:10:00;24.60;99.90
23991;DHT22;12205;50.600;4.608;2023-07-29T11:12:38;24.60;99.90
23991;DHT22;12205;50.600;4.608;2023-07-29T11:15:16;24.30;99.90
23991;DHT22;12205;50.600;4.608;2023-07-29T11:17:46;23.80;99.90
23991;DHT22;12205;50.600;4.608;2023-07-29T11:20:15;23.70;99.90
23991;DHT22;12205;50.600;4.608;2023-07-29T11:22:42;23.50;99.90
23991;DHT22;12205;50.600;4.608;2023-07-29T11:25:12;23.10;99.90
23991;DHT22;12205;50.600;4.608;2023-07-29T11:27:40;23.00;99.90
23991;DHT22;12205;50.600;4.608;2023-07-29T11:30:09;23.00;99.90
23991;DHT22;12205;50.600;4.608;2023-07-29T11:32:38;22.80;99.90
23991;DHT22;12205;50.600;4.608;2023-07-29T11:35:07;22.80;99.90
23991;DHT22;12205;50.600;4.608;2023-07-29T11:37:37;22.80;99.90
23991;DHT22;12205;50.600;4.608;2023-07-29T11:40:06;23.10;99.90
23991;DHT22;12205;50.600;4.608;2023-07-29T11:42:37;23.40;99.90
23991;DHT22;12205;50.600;4.608;2023-07-29T11:45:05;23.70;99.90
23991;DHT22;12205;50.600;4.608;2023-07-29T11:47:34;23.90;99.90
23991;DHT22;12205;50.600;4.608;2023-07-29T11:50:03;24.20;99.90
23991;DHT22;12205;50.600;4.608;2023-07-29T11:52:32;24.40;99.90
23991;DHT22;12205;50.600;4.608;2023-07-29T11:55:00;24.50;99.90
23991;DHT22;12205;50.600;4.608;2023-07-29T11:57:29;24.60;99.90
23991;DHT22;12205;50.600;4.608;2023-07-29T11:59:58;24.60;99.90
23991;DHT22;12205;50.600;4.608;2023-07-29T12:02:25;24.70;99.90
23991;DHT22;12205;50.600;4.608;2023-07-29T12:04:53;24.80;99.90
23991;DHT22;12205;50.600;4.608;2023-07-29T12:07:20;24.70;99.90
23991;DHT22;12205;50.600;4.608;2023-07-29T12:09:48;24.60;99.90
23991;DHT22;12205;50.600;4.608;2023-07-29T12:12:16;24.50;99.90
23991;DHT22;12205;50.600;4.608;2023-07-29T12:14:45;24.50;99.90
23991;DHT22;12205;50.600;4.608;2023-07-29T12:17:14;24.40;99.90
23991;DHT22;12205;50.600;4.608;2023-07-29T12:19:42;24.70;99.90
23991;DHT22;12205;50.600;4.608;2023-07-29T12:22:10;25.00;99.90
23991;DHT22;12205;50.600;4.608;2023-07-29T12:24:39;25.50;99.90
23991;DHT22;12205;50.600;4.608;2023-07-29T12:27:11;25.90;99.90
23991;DHT22;12205;50.600;4.608;2023-07-29T12:29:41;25.70;99.90
23991;DHT22;12205;50.600;4.608;2023-07-29T12:32:09;25.40;99.90
23991;DHT22;12205;50.600;4.608;2023-07-29T12:34:39;25.20;99.90
23991;DHT22;12205;50.600;4.608;2023-07-29T12:37:07;24.60;99.90
23991;DHT22;12205;50.600;4.608;2023-07-29T12:39:38;24.10;99.90
23991;DHT22;12205;50.600;4.608;2023-07-29T12:42:07;23.70;99.90
23991;DHT22;12205;50.600;4.608;2023-07-29T12:44:35;23.30;99.90
23991;DHT22;12205;50.600;4.608;2023-07-29T12:47:05;23.10;99.90
23991;DHT22;12205;50.600;4.608;2023-07-29T12:49:34;22.90;99.90
23991;DHT22;12205;50.600;4.608;2023-07-29T12:52:03;22.80;99.90
23991;DHT22;12205;50.600;4.608;2023-07-29T12:54:30;22.40;99.90
23991;DHT22;12205;50.600;4.608;2023-07-29T12:56:57;22.10;99.90
23991;DHT22;12205;50.600;4.608;2023-07-29T12:59:24;21.90;99.90
23991;DHT22;12205;50.600;4.608;2023-07-29T13:01:51;22.30;99.90
23991;DHT22;12205;50.600;4.608;2023-07-29T13:04:18;22.80;99.90
23991;DHT22;12205;50.600;4.608;2023-07-29T13:06:45;23.30;99.90
23991;DHT22;12205;50.600;4.608;2023-07-29T13:09:14;23.90;99.90
23991;DHT22;12205;50.600;4.608;2023-07-29T13:11:41;24.40;99.90
23991;DHT22;12205;50.600;4.608;2023-07-29T13:14:08;24.70;99.90
23991;DHT22;12205;50.600;4.608;2023-07-29T13:16:35;25.00;99.90
23991;DHT22;12205;50.600;4.608;2023-07-29T13:19:02;25.40;99.90
23991;DHT22;12205;50.600;4.608;2023-07-29T13:21:29;25.70;99.90
23991;DHT22;12205;50.600;4.608;2023-07-29T13:23:56;25.50;99.90
23991;DHT22;12205;50.600;4.608;2023-07-29T13:26:25;25.20;99.90
23991;DHT22;12205;50.600;4.608;2023-07-29T13:28:52;25.10;99.90
23991;DHT22;12205;50.600;4.608;2023-07-29T13:31:21;25.00;99.90
23991;DHT22;12205;50.600;4.608;2023-07-29T13:33:48;24.80;99.90
23991;DHT22;12205;50.600;4.608;2023-07-29T13:36:15;24.70;99.90
23991;DHT22;12205;50.600;4.608;2023-07-29T13:38:42;24.80;99.90
23991;DHT22;12205;50.600;4.608;2023-07-29T13:41:09;24.60;99.90
23991;DHT22;12205;50.600;4.608;2023-07-29T13:43:38;24.60;99.90
23991;DHT22;12205;50.600;4.608;2023-07-29T13:46:05;24.70;99.90
23991;DHT22;12205;50.600;4.608;2023-07-29T13:48:32;25.00;99.90
23991;DHT22;12205;50.600;4.608;2023-07-29T13:51:01;25.30;99.90
23991;DHT22;12205;50.600;4.608;2023-07-29T13:53:28;25.50;99.90
23991;DHT22;12205;50.600;4.608;2023-07-29T13:55:55;25.80;99.90
23991;DHT22;12205;50.600;4.608;2023-07-29T13:58:22;26.20;99.90
23991;DHT22;12205;50.600;4.608;2023-07-29T14:00:51;26.60;99.90
23991;DHT22;12205;50.600;4.608;2023-07-29T14:03:18;26.70;99.90
23991;DHT22;12205;50.600;4.608;2023-07-29T14:05:45;26.80;99.90
23991;DHT22;12205;50.600;4.608;2023-07-29T14:08:13;26.50;99.90
23991;DHT22;12205;50.600;4.608;2023-07-29T14:10:40;26.80;99.90
23991;DHT22;12205;50.600;4.608;2023-07-29T14:13:07;26.90;99.90
23991;DHT22;12205;50.600;4.608;2023-07-29T14:15:34;27.00;99.90
23991;DHT22;12205;50.600;4.608;2023-07-29T14:18:03;27.20;99.90
23991;DHT22;12205;50.600;4.608;2023-07-29T14:20:30;27.60;99.90
23991;DHT22;12205;50.600;4.608;2023-07-29T14:22:57;28.20;99.90
23991;DHT22;12205;50.600;4.608;2023-07-29T14:25:24;28.40;99.90
23991;DHT22;12205;50.600;4.608;2023-07-29T14:27:52;28.20;99.90
23991;DHT22;12205;50.600;4.608;2023-07-29T14:30:19;27.70;99.90
23991;DHT22;12205;50.600;4.608;2023-07-29T14:32:46;27.30;99.90
23991;DHT22;12205;50.600;4.608;2023-07-29T14:35:15;27.00;99.90
23991;DHT22;12205;50.600;4.608;2023-07-29T14:37:42;26.60;99.90
23991;DHT22;12205;50.600;4.608;2023-07-29T14:40:09;26.20;99.90
23991;DHT22;12205;50.600;4.608;2023-07-29T14:42:36;26.20;99.90
23991;DHT22;12205;50.600;4.608;2023-07-29T14:45:04;25.90;99.90
23991;DHT22;12205;50.600;4.608;2023-07-29T14:47:33;25.90;99.90
23991;DHT22;12205;50.600;4.608;2023-07-29T14:50:00;25.90;99.90
23991;DHT22;12205;50.600;4.608;2023-07-29T14:52:29;26.00;99.90
23991;DHT22;12205;50.600;4.608;2023-07-29T14:54:56;25.90;99.90
23991;DHT22;12205;50.600;4.608;2023-07-29T14:57:23;25.60;99.90
23991;DHT22;12205;50.600;4.608;2023-07-29T14:59:50;25.50;99.90
23991;DHT22;12205;50.600;4.608;2023-07-29T15:02:17;25.50;99.90
23991;DHT22;12205;50.600;4.608;2023-07-29T15:04:44;25.50;99.90
23991;DHT22;12205;50.600;4.608;2023-07-29T15:07:11;25.50;99.90
23991;DHT22;12205;50.600;4.608;2023-07-29T15:09:40;25.40;99.90
23991;DHT22;12205;50.600;4.608;2023-07-29T15:12:08;25.50;99.90
23991;DHT22;12205;50.600;4.608;2023-07-29T15:14:35;25.30;99.90
23991;DHT22;12205;50.600;4.608;2023-07-29T15:17:02;25.20;99.90
23991;DHT22;12205;50.600;4.608;2023-07-29T15:19:29;25.00;99.90
23991;DHT22;12205;50.600;4.608;2023-07-29T15:21:57;25.00;99.90
23991;DHT22;12205;50.600;4.608;2023-07-29T15:24:24;24.80;99.90
23991;DHT22;12205;50.600;4.608;2023-07-29T15:26:52;24.60;99.90
23991;DHT22;12205;50.600;4.608;2023-07-29T15:29:19;24.30;99.90
23991;DHT22;12205;50.600;4.608;2023-07-29T15:31:46;23.90;99.90
23991;DHT22;12205;50.600;4.608;2023-07-29T15:34:14;23.90;99.90
23991;DHT22;12205;50.600;4.608;2023-07-29T15:36:41;23.90;99.90
23991;DHT22;12205;50.600;4.608;2023-07-29T15:39:08;23.80;99.90